createdAt,value
2019-04-27T00:00:37.035Z,24.16
2019-04-27T00:01:45.247Z,24.22
2019-04-27T00:02:57.474Z,24.17
2019-04-27T00:04:16.244Z,24.09
2019-04-27T00:05:33.228Z,24.18
2019-04-27T00:06:38.171Z,24.13
2019-04-27T00:07:43.938Z,24.09
2019-04-27T00:08:48.623Z,24.10
2019-04-27T00:09:55.595Z,24.03
2019-04-27T00:10:59.707Z,24.06
2019-04-27T00:12:07.461Z,23.96
2019-04-27T00:13:09.335Z,24.06
2019-04-27T00:14:14.959Z,23.77
2019-04-27T00:15:36.624Z,23.95
2019-04-27T00:16:50.481Z,24.01
2019-04-27T00:17:58.115Z,23.94
2019-04-27T00:18:59.827Z,24.00
2019-04-27T00:20:08.927Z,24.10
2019-04-27T00:21:21.496Z,24.10
2019-04-27T00:22:26.048Z,23.99
2019-04-27T00:23:30.323Z,23.98
2019-04-27T00:24:33.558Z,24.03
2019-04-27T00:25:37.141Z,24.10
2019-04-27T00:26:39.384Z,24.03
2019-04-27T00:27:41.692Z,24.01
2019-04-27T00:28:44.758Z,23.99
2019-04-27T00:29:47.701Z,23.89
2019-04-27T00:30:49.658Z,24.00
2019-04-27T00:31:53.413Z,24.02
2019-04-27T00:32:58.048Z,23.99
2019-04-27T00:34:00.292Z,24.02
2019-04-27T00:35:03.720Z,23.98
2019-04-27T00:36:25.696Z,24.00
2019-04-27T00:37:45.056Z,24.01
2019-04-27T00:38:55.707Z,23.95
2019-04-27T00:40:03.470Z,23.99
2019-04-27T00:41:07.931Z,23.93
2019-04-27T00:42:13.551Z,23.77
2019-04-27T00:43:16.088Z,23.75
2019-04-27T00:44:19.041Z,23.73
2019-04-27T00:45:23.309Z,23.85
2019-04-27T00:46:25.724Z,23.79
2019-04-27T00:47:28.900Z,23.67
2019-04-27T00:48:30.871Z,23.68
2019-04-27T00:49:33.679Z,23.71
2019-04-27T00:50:35.973Z,23.68
2019-04-27T00:51:38.014Z,23.70
2019-04-27T00:52:40.347Z,23.56
2019-04-27T00:53:43.580Z,23.58
2019-04-27T00:54:47.300Z,23.54
2019-04-27T00:55:54.196Z,23.37
2019-04-27T00:56:56.647Z,23.34
2019-04-27T00:58:10.117Z,23.35
2019-04-27T00:59:23.921Z,23.40
2019-04-27T01:00:45.097Z,23.31
2019-04-27T01:01:55.097Z,23.22
2019-04-27T01:03:05.373Z,23.06
2019-04-27T01:04:26.202Z,23.02
2019-04-27T01:05:30.011Z,22.92
2019-04-27T01:06:33.612Z,22.81
2019-04-27T01:07:36.258Z,22.74
2019-04-27T01:08:39.149Z,22.76
2019-04-27T01:09:40.885Z,22.78
2019-04-27T01:10:43.851Z,22.71
2019-04-27T01:11:46.037Z,22.61
2019-04-27T01:12:48.529Z,22.61
2019-04-27T01:13:50.859Z,22.66
2019-04-27T01:14:54.656Z,22.64
2019-04-27T01:15:57.155Z,22.62
2019-04-27T01:17:01.437Z,22.51
2019-04-27T01:18:12.366Z,22.48
2019-04-27T01:19:10.400Z,22.58
2019-04-27T01:20:12.960Z,22.51
2019-04-27T01:21:15.545Z,22.45
2019-04-27T01:22:18.857Z,22.44
2019-04-27T01:23:21.550Z,22.48
2019-04-27T01:24:23.782Z,22.55
2019-04-27T01:25:28.964Z,22.51
2019-04-27T01:26:38.711Z,22.57
2019-04-27T01:27:40.753Z,22.65
2019-04-27T01:28:53.952Z,22.72
2019-04-27T01:29:56.238Z,22.69
2019-04-27T01:31:02.986Z,22.81
2019-04-27T01:32:06.546Z,22.82
2019-04-27T01:33:11.449Z,22.90
2019-04-27T01:34:14.189Z,22.88
2019-04-27T01:35:16.723Z,22.86
2019-04-27T01:36:19.251Z,22.86
2019-04-27T01:37:21.546Z,22.89
2019-04-27T01:38:24.541Z,22.92
2019-04-27T01:39:28.932Z,22.97
2019-04-27T01:40:31.563Z,22.99
2019-04-27T01:41:33.830Z,23.02
2019-04-27T01:42:36.374Z,23.06
2019-04-27T01:43:39.183Z,23.08
2019-04-27T01:44:41.700Z,23.19
2019-04-27T01:45:44.144Z,23.14
2019-04-27T01:46:46.371Z,23.19
2019-04-27T01:47:50.097Z,23.16
2019-04-27T01:48:52.122Z,23.21
2019-04-27T01:49:54.598Z,23.32
2019-04-27T01:50:59.262Z,23.36
2019-04-27T01:52:02.348Z,23.38
2019-04-27T01:53:04.782Z,23.38
2019-04-27T01:54:10.372Z,23.43
2019-04-27T01:55:12.916Z,23.46
2019-04-27T01:56:15.319Z,23.49
2019-04-27T01:57:19.458Z,23.54
2019-04-27T01:58:22.005Z,23.55
2019-04-27T01:59:24.088Z,23.63
2019-04-27T02:00:44.377Z,23.71
2019-04-27T02:01:54.692Z,23.74
2019-04-27T02:03:00.208Z,23.76
2019-04-27T02:04:14.265Z,23.71
2019-04-27T02:05:21.437Z,23.80
2019-04-27T02:06:25.275Z,23.83
2019-04-27T02:07:29.939Z,23.89
2019-04-27T02:08:32.307Z,23.89
2019-04-27T02:09:35.063Z,23.91
2019-04-27T02:10:37.446Z,23.94
2019-04-27T02:11:40.813Z,23.98
2019-04-27T02:12:44.049Z,23.87
2019-04-27T02:13:50.832Z,23.86
2019-04-27T02:14:53.054Z,23.70
2019-04-27T02:15:54.885Z,23.66
2019-04-27T02:16:57.409Z,23.25
2019-04-27T02:18:00.102Z,23.05
2019-04-27T02:19:03.181Z,22.90
2019-04-27T02:20:06.801Z,22.96
2019-04-27T02:21:10.539Z,22.98
2019-04-27T02:22:12.727Z,23.12
2019-04-27T02:23:17.013Z,23.13
2019-04-27T02:24:19.872Z,23.28
2019-04-27T02:25:22.744Z,23.34
2019-04-27T02:26:25.031Z,23.43
2019-04-27T02:27:28.712Z,23.22
2019-04-27T02:28:43.179Z,22.67
2019-04-27T02:30:02.956Z,22.53
2019-04-27T02:31:25.397Z,22.54
2019-04-27T02:32:45.158Z,22.48
2019-04-27T02:34:04.483Z,22.24
2019-04-27T02:35:09.367Z,22.25
2019-04-27T02:36:15.196Z,21.91
2019-04-27T02:37:16.491Z,21.80
2019-04-27T02:38:20.697Z,21.61
2019-04-27T02:39:23.442Z,21.30
2019-04-27T02:40:53.978Z,21.06
2019-04-27T02:41:56.333Z,21.09
2019-04-27T02:42:59.859Z,21.14
2019-04-27T02:44:14.796Z,20.89
2019-04-27T02:45:19.594Z,21.14
2019-04-27T02:46:21.656Z,20.91
2019-04-27T02:47:24.159Z,20.80
2019-04-27T02:48:26.376Z,20.81
2019-04-27T02:49:30.432Z,20.72
2019-04-27T02:50:33.237Z,20.83
2019-04-27T02:51:36.877Z,20.92
2019-04-27T02:52:41.038Z,20.66
2019-04-27T02:53:50.741Z,20.83
2019-04-27T02:54:52.499Z,20.68
2019-04-27T02:55:54.739Z,20.78
2019-04-27T02:56:59.349Z,20.77
2019-04-27T02:58:01.984Z,20.83
2019-04-27T02:59:04.844Z,21.05
2019-04-27T03:00:10.482Z,21.09
2019-04-27T03:01:13.116Z,20.95
2019-04-27T03:02:21.139Z,20.72
2019-04-27T03:03:23.892Z,20.66
2019-04-27T03:04:25.793Z,20.66
2019-04-27T03:05:30.112Z,20.61
2019-04-27T03:06:33.498Z,20.66
2019-04-27T03:07:36.210Z,20.69
2019-04-27T03:08:39.417Z,20.51
2019-04-27T03:09:42.593Z,20.71
2019-04-27T03:10:44.779Z,20.40
2019-04-27T03:11:49.781Z,20.30
2019-04-27T03:12:53.801Z,20.23
2019-04-27T03:14:27.955Z,20.25
2019-04-27T03:15:23.378Z,20.00
2019-04-27T03:16:32.442Z,19.95
2019-04-27T03:17:39.363Z,19.93
2019-04-27T03:18:42.949Z,19.59
2019-04-27T03:19:52.272Z,19.42
2019-04-27T03:21:02.419Z,19.27
2019-04-27T03:22:13.771Z,19.33
2019-04-27T03:23:17.019Z,19.31
2019-04-27T03:24:23.019Z,19.31
2019-04-27T03:25:45.946Z,19.35
2019-04-27T03:26:50.612Z,19.54
2019-04-27T03:28:02.077Z,19.55
2019-04-27T03:29:02.535Z,19.53
2019-04-27T03:30:12.454Z,19.50
2019-04-27T03:31:15.173Z,19.75
2019-04-27T03:32:22.034Z,19.91
2019-04-27T03:33:22.892Z,20.08
2019-04-27T03:34:24.911Z,20.29
2019-04-27T03:35:32.124Z,20.21
2019-04-27T03:36:32.078Z,20.28
2019-04-27T03:37:34.625Z,20.09
2019-04-27T03:38:39.567Z,20.16
2019-04-27T03:39:41.348Z,20.25
2019-04-27T03:40:43.988Z,20.28
2019-04-27T03:41:46.274Z,20.37
2019-04-27T03:42:50.891Z,20.19
2019-04-27T03:43:54.094Z,20.19
2019-04-27T03:44:56.765Z,20.11
2019-04-27T03:46:00.552Z,20.17
2019-04-27T03:47:04.314Z,20.19
2019-04-27T03:48:06.873Z,20.24
2019-04-27T03:49:09.858Z,19.89
2019-04-27T03:50:14.899Z,20.06
2019-04-27T03:51:20.141Z,20.02
2019-04-27T03:52:42.179Z,19.96
2019-04-27T03:53:49.779Z,19.72
2019-04-27T03:54:59.906Z,19.75
2019-04-27T03:56:21.532Z,19.75
2019-04-27T03:57:31.705Z,19.24
2019-04-27T03:58:36.035Z,19.21
2019-04-27T03:59:56.553Z,18.74
2019-04-27T04:01:00.024Z,18.41
2019-04-27T04:02:04.640Z,18.41
2019-04-27T04:03:07.517Z,18.21
2019-04-27T04:04:10.708Z,18.19
2019-04-27T04:05:13.383Z,18.09
2019-04-27T04:06:16.356Z,17.94
2019-04-27T04:07:20.588Z,17.93
2019-04-27T04:08:23.341Z,17.87
2019-04-27T04:09:29.557Z,18.07
2019-04-27T04:10:33.731Z,18.13
2019-04-27T04:11:41.213Z,18.09
2019-04-27T04:12:50.611Z,17.95
2019-04-27T04:13:54.726Z,17.76
2019-04-27T04:14:59.627Z,17.76
2019-04-27T04:16:13.054Z,17.76
2019-04-27T04:17:19.771Z,17.89
2019-04-27T04:18:23.692Z,17.96
2019-04-27T04:19:25.851Z,18.04
2019-04-27T04:20:30.413Z,18.23
2019-04-27T04:21:33.476Z,18.29
2019-04-27T04:22:36.293Z,18.58
2019-04-27T04:23:40.213Z,18.64
2019-04-27T04:24:42.903Z,18.83
2019-04-27T04:25:46.498Z,18.62
2019-04-27T04:26:50.288Z,18.58
2019-04-27T04:27:52.745Z,18.88
2019-04-27T04:28:55.653Z,18.92
2019-04-27T04:29:59.456Z,18.88
2019-04-27T04:31:01.929Z,18.83
2019-04-27T04:32:04.090Z,18.54
2019-04-27T04:33:05.821Z,18.50
2019-04-27T04:34:09.680Z,18.55
2019-04-27T04:35:21.706Z,18.83
2019-04-27T04:36:25.093Z,18.86
2019-04-27T04:37:29.411Z,18.81
2019-04-27T04:38:31.091Z,18.85
2019-04-27T04:39:34.203Z,19.07
2019-04-27T04:40:50.417Z,19.41
2019-04-27T04:42:10.471Z,19.44
2019-04-27T04:43:14.973Z,18.86
2019-04-27T04:44:40.026Z,18.64
2019-04-27T04:46:01.209Z,18.82
2019-04-27T04:47:16.324Z,18.79
2019-04-27T04:48:20.574Z,18.83
2019-04-27T04:49:23.197Z,18.84
2019-04-27T04:50:25.489Z,18.93
2019-04-27T04:51:40.193Z,18.97
2019-04-27T04:52:42.600Z,19.22
2019-04-27T04:53:44.799Z,19.13
2019-04-27T04:54:49.376Z,18.90
2019-04-27T04:55:51.938Z,18.51
2019-04-27T04:56:54.442Z,18.49
2019-04-27T04:57:56.184Z,18.49
2019-04-27T04:59:00.026Z,18.46
2019-04-27T05:00:06.040Z,18.47
2019-04-27T05:01:09.928Z,18.46
2019-04-27T05:02:12.846Z,18.45
2019-04-27T05:03:15.832Z,18.40
2019-04-27T05:04:19.321Z,18.39
2019-04-27T05:05:21.995Z,18.19
2019-04-27T05:06:25.635Z,18.03
2019-04-27T05:07:29.698Z,17.80
2019-04-27T05:08:33.941Z,18.07
2019-04-27T05:09:36.288Z,17.78
2019-04-27T05:10:39.483Z,17.93
2019-04-27T05:11:42.169Z,18.00
2019-04-27T05:12:44.293Z,17.93
2019-04-27T05:13:46.721Z,17.99
2019-04-27T05:14:49.037Z,17.64
2019-04-27T05:15:52.997Z,17.43
2019-04-27T05:16:55.137Z,17.32
2019-04-27T05:17:59.184Z,17.24
2019-04-27T05:19:01.451Z,17.06
2019-04-27T05:20:06.245Z,17.40
2019-04-27T05:21:13.732Z,17.52
2019-04-27T05:22:15.915Z,17.69
2019-04-27T05:23:18.680Z,17.86
2019-04-27T05:24:21.172Z,17.95
2019-04-27T05:25:23.630Z,18.23
2019-04-27T05:26:29.376Z,18.27
2019-04-27T05:27:31.824Z,18.39
2019-04-27T05:28:33.628Z,18.32
2019-04-27T05:29:36.213Z,18.56
2019-04-27T05:30:39.093Z,18.54
2019-04-27T05:31:42.898Z,18.40
2019-04-27T05:32:45.360Z,18.24
2019-04-27T05:33:49.057Z,17.99
2019-04-27T05:34:51.853Z,17.62
2019-04-27T05:35:54.238Z,17.60
2019-04-27T05:36:56.550Z,17.48
2019-04-27T05:38:00.941Z,17.58
2019-04-27T05:39:05.446Z,17.46
2019-04-27T05:40:09.138Z,17.52
2019-04-27T05:41:11.871Z,17.71
2019-04-27T05:42:17.136Z,17.68
2019-04-27T05:43:21.035Z,17.64
2019-04-27T05:44:33.970Z,17.78
2019-04-27T05:45:53.167Z,17.92
2019-04-27T05:46:56.437Z,17.88
2019-04-27T05:48:03.186Z,18.05
2019-04-27T05:49:09.526Z,17.70
2019-04-27T05:50:13.517Z,17.63
2019-04-27T05:51:17.113Z,17.39
2019-04-27T05:52:29.357Z,17.61
2019-04-27T05:53:32.017Z,17.68
2019-04-27T05:54:34.097Z,17.68
2019-04-27T05:55:36.192Z,17.64
2019-04-27T05:56:40.147Z,17.45
2019-04-27T05:57:43.114Z,17.44
2019-04-27T05:58:45.785Z,17.60
2019-04-27T05:59:49.857Z,17.68
2019-04-27T06:00:52.721Z,17.55
2019-04-27T06:01:59.148Z,17.40
2019-04-27T06:03:02.760Z,17.18
2019-04-27T06:04:05.729Z,17.15
2019-04-27T06:05:08.825Z,17.09
2019-04-27T06:06:12.912Z,16.81
2019-04-27T06:07:16.944Z,16.84
2019-04-27T06:08:21.105Z,16.90
2019-04-27T06:09:23.952Z,17.12
2019-04-27T06:10:26.851Z,16.93
2019-04-27T06:11:29.576Z,17.07
2019-04-27T06:12:31.796Z,17.07
2019-04-27T06:13:34.084Z,17.15
2019-04-27T06:14:36.290Z,17.28
2019-04-27T06:15:38.950Z,17.40
2019-04-27T06:16:42.970Z,17.33
2019-04-27T06:17:45.221Z,17.42
2019-04-27T06:18:49.323Z,17.20
2019-04-27T06:19:52.932Z,17.19
2019-04-27T06:20:56.504Z,17.07
2019-04-27T06:22:01.283Z,17.29
2019-04-27T06:23:05.733Z,17.57
2019-04-27T06:24:08.782Z,17.69
2019-04-27T06:25:12.162Z,17.77
2019-04-27T06:26:15.572Z,17.87
2019-04-27T06:27:21.084Z,17.64
2019-04-27T06:28:23.966Z,17.68
2019-04-27T06:29:26.590Z,17.59
2019-04-27T06:30:29.358Z,17.35
2019-04-27T06:31:31.855Z,17.20
2019-04-27T06:32:34.749Z,17.10
2019-04-27T06:33:36.962Z,16.88
2019-04-27T06:34:39.335Z,16.85
2019-04-27T06:35:41.746Z,16.77
2019-04-27T06:36:43.868Z,16.88
2019-04-27T06:37:46.473Z,16.79
2019-04-27T06:38:51.093Z,16.70
2019-04-27T06:39:53.489Z,16.67
2019-04-27T06:40:56.185Z,16.65
2019-04-27T06:42:01.096Z,16.58
2019-04-27T06:43:03.503Z,16.69
2019-04-27T06:44:06.097Z,16.50
2019-04-27T06:45:09.930Z,16.54
2019-04-27T06:46:11.869Z,16.64
2019-04-27T06:47:14.099Z,16.63
2019-04-27T06:48:17.042Z,16.70
2019-04-27T06:49:19.601Z,16.61
2019-04-27T06:50:21.993Z,16.47
2019-04-27T06:51:24.716Z,16.67
2019-04-27T06:52:29.196Z,16.54
2019-04-27T06:53:35.894Z,16.52
2019-04-27T06:54:38.935Z,16.79
2019-04-27T06:55:41.696Z,16.57
2019-04-27T06:56:44.766Z,16.64
2019-04-27T06:57:49.103Z,16.57
2019-04-27T06:58:51.959Z,16.57
2019-04-27T06:59:54.603Z,16.51
2019-04-27T07:00:56.809Z,16.23
2019-04-27T07:02:02.696Z,16.38
2019-04-27T07:03:05.494Z,16.41
2019-04-27T07:04:08.809Z,16.26
2019-04-27T07:05:13.120Z,16.13
2019-04-27T07:06:15.530Z,16.30
2019-04-27T07:07:19.379Z,16.15
2019-04-27T07:08:21.790Z,16.13
2019-04-27T07:09:23.692Z,16.20
2019-04-27T07:10:25.466Z,16.02
2019-04-27T07:11:29.594Z,16.25
2019-04-27T07:12:35.402Z,16.42
2019-04-27T07:13:39.029Z,16.43
2019-04-27T07:14:52.231Z,16.53
2019-04-27T07:15:45.535Z,16.88
2019-04-27T07:16:50.756Z,17.25
2019-04-27T07:17:53.394Z,17.13
2019-04-27T07:18:59.234Z,17.01
2019-04-27T07:20:03.701Z,16.81
2019-04-27T07:21:16.288Z,16.92
2019-04-27T07:22:11.475Z,16.64
2019-04-27T07:23:14.920Z,16.63
2019-04-27T07:24:19.487Z,16.64
2019-04-27T07:25:22.851Z,16.64
2019-04-27T07:26:27.288Z,16.56
2019-04-27T07:27:29.400Z,16.51
2019-04-27T07:28:32.712Z,16.66
2019-04-27T07:29:36.075Z,16.69
2019-04-27T07:30:38.815Z,16.73
2019-04-27T07:31:41.532Z,16.54
2019-04-27T07:32:43.745Z,16.37
2019-04-27T07:33:45.662Z,16.28
2019-04-27T07:34:49.777Z,16.41
2019-04-27T07:35:52.015Z,16.12
2019-04-27T07:36:54.491Z,16.16
2019-04-27T07:37:58.813Z,16.06
2019-04-27T07:39:04.678Z,15.87
2019-04-27T07:40:09.006Z,15.78
2019-04-27T07:41:11.684Z,15.83
2019-04-27T07:42:13.905Z,15.75
2019-04-27T07:43:34.153Z,15.62
2019-04-27T07:44:39.138Z,15.58
2019-04-27T07:45:43.018Z,15.58
2019-04-27T07:46:51.334Z,15.38
2019-04-27T07:47:54.321Z,15.24
2019-04-27T07:48:56.964Z,15.10
2019-04-27T07:50:01.516Z,15.23
2019-04-27T07:51:03.895Z,15.19
2019-04-27T07:52:06.354Z,15.15
2019-04-27T07:53:09.220Z,15.12
2019-04-27T07:54:11.380Z,15.35
2019-04-27T07:55:13.796Z,15.40
2019-04-27T07:56:16.506Z,15.48
2019-04-27T07:57:19.828Z,15.93
2019-04-27T07:58:22.423Z,16.27
2019-04-27T07:59:24.630Z,16.72
2019-04-27T08:00:28.772Z,16.93
2019-04-27T08:01:32.177Z,17.03
2019-04-27T08:02:34.682Z,16.85
2019-04-27T08:03:36.662Z,16.85
2019-04-27T08:04:40.030Z,16.79
2019-04-27T08:05:42.601Z,16.95
2019-04-27T08:06:44.664Z,17.15
2019-04-27T08:07:49.073Z,17.41
2019-04-27T08:08:52.109Z,17.35
2019-04-27T08:09:54.482Z,17.48
2019-04-27T08:10:59.408Z,17.65
2019-04-27T08:12:02.036Z,17.83
2019-04-27T08:13:04.272Z,17.92
2019-04-27T08:14:06.586Z,17.95
2019-04-27T08:15:10.020Z,18.20
2019-04-27T08:16:12.163Z,18.42
2019-04-27T08:17:14.751Z,18.52
2019-04-27T08:18:18.987Z,18.41
2019-04-27T08:19:20.844Z,17.94
2019-04-27T08:20:23.219Z,17.75
2019-04-27T08:21:26.367Z,17.41
2019-04-27T08:22:29.152Z,17.45
2019-04-27T08:23:31.807Z,17.15
2019-04-27T08:24:34.691Z,16.91
2019-04-27T08:25:39.196Z,16.78
2019-04-27T08:26:51.111Z,16.85
2019-04-27T08:27:54.756Z,16.97
2019-04-27T08:29:12.194Z,17.09
2019-04-27T08:30:20.873Z,17.10
2019-04-27T08:31:25.829Z,17.00
2019-04-27T08:32:41.517Z,17.21
2019-04-27T08:33:44.009Z,17.32
2019-04-27T08:34:46.559Z,17.60
2019-04-27T08:35:49.308Z,17.87
2019-04-27T08:36:52.052Z,18.13
2019-04-27T08:37:54.628Z,18.39
2019-04-27T08:38:58.753Z,18.61
2019-04-27T08:40:00.782Z,18.41
2019-04-27T08:41:03.918Z,18.28
2019-04-27T08:42:06.256Z,18.10
2019-04-27T08:43:09.226Z,18.42
2019-04-27T08:44:11.466Z,18.49
2019-04-27T08:45:14.176Z,18.47
2019-04-27T08:46:16.584Z,18.27
2019-04-27T08:47:19.567Z,17.79
2019-04-27T08:48:33.839Z,17.62
2019-04-27T08:49:29.239Z,17.58
2019-04-27T08:50:31.586Z,17.21
2019-04-27T08:51:33.854Z,17.32
2019-04-27T08:52:36.674Z,17.62
2019-04-27T08:53:39.806Z,17.90
2019-04-27T08:54:42.288Z,18.00
2019-04-27T08:55:44.699Z,18.09
2019-04-27T08:56:47.042Z,18.20
2019-04-27T08:57:49.085Z,18.29
2019-04-27T08:58:51.785Z,18.27
2019-04-27T08:59:54.460Z,18.45
2019-04-27T09:00:56.556Z,18.40
2019-04-27T09:01:59.198Z,18.38
2019-04-27T09:03:01.400Z,18.34
2019-04-27T09:04:03.842Z,18.22
2019-04-27T09:05:06.977Z,18.25
2019-04-27T09:06:10.792Z,18.19
2019-04-27T09:07:31.887Z,18.11
2019-04-27T09:08:36.175Z,18.02
2019-04-27T09:09:42.576Z,18.30
2019-04-27T09:10:50.925Z,18.29
2019-04-27T09:12:11.867Z,18.28
2019-04-27T09:13:25.587Z,17.95
2019-04-27T09:14:40.703Z,17.99
2019-04-27T09:16:00.179Z,17.84
2019-04-27T09:17:07.195Z,18.04
2019-04-27T09:18:12.714Z,18.17
2019-04-27T09:19:20.051Z,18.22
2019-04-27T09:20:24.245Z,18.23
2019-04-27T09:21:29.325Z,18.03
2019-04-27T09:22:32.154Z,17.81
2019-04-27T09:23:34.559Z,17.51
2019-04-27T09:24:36.908Z,17.46
2019-04-27T09:25:39.677Z,17.57
2019-04-27T09:26:42.813Z,17.52
2019-04-27T09:27:45.693Z,17.67
2019-04-27T09:28:49.307Z,17.59
2019-04-27T09:29:52.133Z,17.49
2019-04-27T09:30:55.567Z,17.38
2019-04-27T09:31:59.558Z,17.28
2019-04-27T09:33:03.425Z,17.24
2019-04-27T09:34:05.839Z,17.37
2019-04-27T09:35:08.952Z,17.27
2019-04-27T09:36:11.281Z,17.35
2019-04-27T09:37:15.931Z,17.26
2019-04-27T09:38:18.694Z,17.13
2019-04-27T09:39:22.567Z,17.21
2019-04-27T09:40:26.639Z,17.30
2019-04-27T09:41:29.053Z,17.11
2019-04-27T09:42:31.700Z,17.14
2019-04-27T09:43:34.252Z,17.25
2019-04-27T09:44:38.066Z,17.13
2019-04-27T09:45:41.708Z,16.99
2019-04-27T09:46:44.203Z,16.79
2019-04-27T09:47:46.920Z,16.52
2019-04-27T09:48:51.699Z,16.46
2019-04-27T09:49:54.068Z,16.30
2019-04-27T09:50:56.558Z,16.46
2019-04-27T09:51:59.424Z,16.58
2019-04-27T09:53:01.816Z,16.53
2019-04-27T09:54:05.782Z,16.93
2019-04-27T09:55:09.007Z,17.06
2019-04-27T09:56:11.920Z,17.22
2019-04-27T09:57:16.050Z,17.16
2019-04-27T09:58:18.754Z,17.13
2019-04-27T09:59:21.438Z,16.89
2019-04-27T10:00:24.746Z,16.80
2019-04-27T10:01:28.906Z,16.75
2019-04-27T10:02:31.521Z,16.61
2019-04-27T10:03:36.061Z,16.83
2019-04-27T10:04:38.630Z,16.78
2019-04-27T10:05:43.154Z,16.75
2019-04-27T10:06:46.187Z,16.84
2019-04-27T10:07:49.685Z,16.90
2019-04-27T10:08:52.446Z,17.25
2019-04-27T10:09:55.987Z,17.55
2019-04-27T10:10:58.671Z,17.78
2019-04-27T10:12:01.203Z,17.81
2019-04-27T10:13:04.026Z,17.79
2019-04-27T10:14:07.435Z,17.22
2019-04-27T10:15:11.751Z,17.43
2019-04-27T10:16:13.793Z,17.69
2019-04-27T10:17:16.708Z,17.75
2019-04-27T10:18:19.069Z,17.63
2019-04-27T10:19:28.694Z,17.64
2019-04-27T10:20:25.321Z,17.90
2019-04-27T10:21:28.122Z,17.66
2019-04-27T10:22:40.558Z,17.76
2019-04-27T10:23:36.511Z,17.67
2019-04-27T10:24:39.791Z,17.63
2019-04-27T10:25:42.090Z,17.61
2019-04-27T10:26:44.891Z,17.16
2019-04-27T10:27:49.408Z,16.98
2019-04-27T10:28:51.987Z,17.14
2019-04-27T10:29:54.663Z,17.20
2019-04-27T10:30:56.999Z,17.01
2019-04-27T10:31:59.473Z,17.01
2019-04-27T10:33:03.297Z,17.06
2019-04-27T10:34:05.985Z,16.80
2019-04-27T10:35:09.147Z,16.55
2019-04-27T10:36:12.167Z,16.39
2019-04-27T10:37:16.035Z,16.30
2019-04-27T10:38:18.973Z,16.45
2019-04-27T10:39:21.567Z,16.14
2019-04-27T10:40:23.871Z,16.04
2019-04-27T10:41:26.520Z,16.05
2019-04-27T10:42:28.625Z,16.11
2019-04-27T10:43:30.506Z,16.18
2019-04-27T10:44:32.791Z,16.11
2019-04-27T10:45:35.765Z,16.12
2019-04-27T10:46:41.370Z,16.20
2019-04-27T10:47:43.575Z,16.53
2019-04-27T10:48:47.093Z,16.35
2019-04-27T10:49:51.533Z,16.58
2019-04-27T10:50:54.419Z,16.41
2019-04-27T10:51:56.968Z,16.62
2019-04-27T10:52:59.496Z,16.88
2019-04-27T10:54:04.017Z,17.01
2019-04-27T10:55:12.211Z,17.26
2019-04-27T10:56:14.584Z,17.60
2019-04-27T10:57:17.274Z,17.81
2019-04-27T10:58:19.518Z,18.08
2019-04-27T10:59:22.165Z,18.27
2019-04-27T11:00:27.987Z,18.52
2019-04-27T11:01:31.628Z,18.67
2019-04-27T11:02:34.174Z,18.68
2019-04-27T11:03:55.478Z,18.71
2019-04-27T11:05:01.234Z,18.84
2019-04-27T11:06:22.937Z,18.55
2019-04-27T11:07:28.140Z,18.74
2019-04-27T11:08:31.112Z,18.65
2019-04-27T11:09:34.454Z,18.88
2019-04-27T11:10:36.351Z,19.02
2019-04-27T11:11:40.310Z,19.23
2019-04-27T11:12:42.576Z,19.38
2019-04-27T11:13:46.072Z,19.51
2019-04-27T11:14:48.754Z,19.11
2019-04-27T11:15:50.606Z,18.86
2019-04-27T11:16:53.743Z,19.01
2019-04-27T11:17:56.307Z,19.08
2019-04-27T11:18:58.857Z,19.08
2019-04-27T11:20:02.952Z,19.02
2019-04-27T11:21:05.836Z,19.23
2019-04-27T11:22:09.029Z,19.48
2019-04-27T11:23:12.409Z,19.74
2019-04-27T11:24:14.484Z,19.73
2019-04-27T11:25:17.541Z,19.85
2019-04-27T11:26:19.886Z,20.06
2019-04-27T11:27:24.127Z,20.22
2019-04-27T11:28:26.471Z,20.35
2019-04-27T11:29:29.177Z,20.38
2019-04-27T11:30:31.670Z,20.55
2019-04-27T11:31:36.266Z,20.24
2019-04-27T11:32:38.846Z,20.34
2019-04-27T11:33:40.603Z,20.43
2019-04-27T11:35:00.246Z,20.49
2019-04-27T11:36:16.627Z,20.64
2019-04-27T11:37:20.956Z,20.55
2019-04-27T11:38:23.269Z,20.43
2019-04-27T11:39:26.086Z,20.61
2019-04-27T11:40:29.288Z,20.69
2019-04-27T11:41:31.678Z,20.83
2019-04-27T11:42:33.481Z,20.98
2019-04-27T11:43:36.363Z,21.07
2019-04-27T11:44:40.433Z,21.09
2019-04-27T11:45:42.931Z,21.09
2019-04-27T11:46:47.538Z,20.32
2019-04-27T11:47:50.329Z,20.24
2019-04-27T11:48:52.536Z,20.37
2019-04-27T11:49:57.829Z,20.13
2019-04-27T11:51:00.348Z,20.20
2019-04-27T11:52:03.441Z,20.11
2019-04-27T11:53:06.297Z,19.78
2019-04-27T11:54:08.983Z,19.81
2019-04-27T11:55:11.795Z,19.40
2019-04-27T11:56:15.719Z,19.73
2019-04-27T11:57:18.296Z,19.94
2019-04-27T11:58:21.326Z,20.12
2019-04-27T11:59:23.735Z,20.30
2019-04-27T12:00:27.691Z,20.53
2019-04-27T12:01:30.342Z,20.39
2019-04-27T12:02:33.342Z,20.36
2019-04-27T12:03:35.939Z,20.51
2019-04-27T12:04:38.240Z,20.09
2019-04-27T12:05:40.628Z,19.85
2019-04-27T12:06:43.353Z,19.95
2019-04-27T12:07:47.855Z,19.98
2019-04-27T12:08:50.512Z,19.33
2019-04-27T12:09:52.433Z,19.27
2019-04-27T12:10:55.741Z,19.45
2019-04-27T12:12:12.706Z,19.47
2019-04-27T12:13:02.265Z,19.57
2019-04-27T12:14:06.212Z,19.55
2019-04-27T12:15:09.701Z,18.83
2019-04-27T12:16:11.763Z,18.99
2019-04-27T12:17:16.411Z,19.15
2019-04-27T12:18:18.515Z,19.45
2019-04-27T12:19:20.966Z,19.80
2019-04-27T12:20:23.301Z,20.03
2019-04-27T12:21:26.133Z,20.25
2019-04-27T12:22:28.474Z,20.46
2019-04-27T12:23:35.551Z,20.64
2019-04-27T12:24:35.717Z,20.56
2019-04-27T12:25:38.370Z,20.44
2019-04-27T12:26:42.962Z,20.45
2019-04-27T12:27:51.023Z,20.73
2019-04-27T12:28:56.102Z,20.94
2019-04-27T12:30:07.388Z,20.79
2019-04-27T12:31:16.340Z,19.78
2019-04-27T12:32:19.407Z,19.22
2019-04-27T12:33:21.831Z,18.32
2019-04-27T12:34:25.606Z,18.38
2019-04-27T12:35:29.249Z,18.24
2019-04-27T12:36:33.411Z,17.77
2019-04-27T12:37:35.942Z,17.84
2019-04-27T12:38:38.348Z,17.68
2019-04-27T12:39:41.519Z,17.71
2019-04-27T12:40:43.776Z,17.45
2019-04-27T12:41:46.282Z,17.65
2019-04-27T12:42:48.645Z,17.84
2019-04-27T12:43:52.030Z,18.22
2019-04-27T12:44:54.769Z,18.47
2019-04-27T12:45:57.029Z,18.66
2019-04-27T12:47:02.675Z,18.87
2019-04-27T12:48:03.789Z,18.94
2019-04-27T12:49:06.218Z,19.06
2019-04-27T12:50:10.394Z,19.02
2019-04-27T12:51:12.818Z,19.37
2019-04-27T12:52:15.919Z,19.21
2019-04-27T12:53:23.477Z,19.30
2019-04-27T12:54:42.592Z,18.58
2019-04-27T12:55:54.005Z,18.51
2019-04-27T12:57:02.540Z,18.41
2019-04-27T12:58:13.816Z,18.27
2019-04-27T12:59:17.914Z,17.64
2019-04-27T13:00:31.401Z,17.65
2019-04-27T13:01:36.003Z,17.43
2019-04-27T13:02:40.128Z,17.51
2019-04-27T13:03:42.624Z,17.02
2019-04-27T13:04:46.673Z,17.02
2019-04-27T13:05:49.579Z,16.87
2019-04-27T13:06:53.000Z,17.15
2019-04-27T13:07:55.247Z,16.93
2019-04-27T13:08:58.030Z,16.84
2019-04-27T13:10:02.033Z,16.55
2019-04-27T13:11:05.988Z,16.36
2019-04-27T13:12:08.764Z,16.59
2019-04-27T13:13:10.490Z,16.52
2019-04-27T13:14:12.788Z,16.48
2019-04-27T13:15:15.914Z,16.55
2019-04-27T13:16:18.546Z,16.26
2019-04-27T13:17:21.578Z,16.19
2019-04-27T13:18:25.835Z,15.96
2019-04-27T13:19:30.104Z,15.90
2019-04-27T13:20:32.749Z,15.72
2019-04-27T13:21:36.531Z,15.93
2019-04-27T13:22:39.584Z,15.84
2019-04-27T13:23:43.353Z,15.52
2019-04-27T13:24:46.987Z,15.41
2019-04-27T13:25:49.494Z,15.47
2019-04-27T13:26:51.907Z,15.68
2019-04-27T13:27:54.449Z,15.83
2019-04-27T13:28:58.299Z,15.87
2019-04-27T13:30:07.296Z,15.83
2019-04-27T13:31:09.873Z,16.02
2019-04-27T13:32:12.555Z,15.66
2019-04-27T13:33:17.282Z,15.68
2019-04-27T13:34:19.653Z,15.60
2019-04-27T13:35:22.430Z,15.55
2019-04-27T13:36:26.481Z,15.68
2019-04-27T13:37:33.340Z,15.51
2019-04-27T13:38:36.605Z,15.62
2019-04-27T13:39:40.299Z,15.93
2019-04-27T13:40:42.551Z,15.90
2019-04-27T13:41:46.273Z,15.85
2019-04-27T13:43:02.420Z,16.01
2019-04-27T13:44:06.579Z,15.88
2019-04-27T13:45:11.913Z,16.05
2019-04-27T13:46:32.647Z,16.15
2019-04-27T13:47:42.375Z,16.03
2019-04-27T13:48:58.862Z,16.06
2019-04-27T13:50:06.984Z,15.98
2019-04-27T13:51:26.579Z,15.75
2019-04-27T13:52:29.991Z,15.64